Observations for Trim Market St
| Time | AQI | Temp °C | Hum % | Pres Pa | CO μg/m³ | H₂S μg/m³ | NO μg/m³ | NO₂ μg/m³ | O₃ μg/m³ | SO₂ μg/m³ | PM1 μg/m³ | PM2.5 μg/m³ | PM10 μg/m³ |
|---|---|---|---|---|---|---|---|---|---|---|---|---|---|
| Friday 21 August 2026 | |||||||||||||
| 07:42 | 2 | 16.5 | 70 | 56,761 | 0.83 | 0 | 4.38 | 10.18 | 22.93 | 0 | 0.71 | 3.08 | 5.01 |
| 07:41 | 2 | 16.4 | 70 | 56,568 | 0.97 | 0 | 4.45 | 9.41 | 16.29 | 0 | 0.71 | 3.54 | 5.65 |
| 07:40 | 2 | 16.2 | 71 | 56,319 | 1.19 | 0 | 5.02 | 8.12 | 19.02 | 0 | 0 | 2.06 | 4.41 |
| 07:39 | 2 | 16 | 71 | 56,014 | 1.16 | 0 | 4.41 | 14.47 | 23.27 | 0 | 0 | 3 | 5.05 |
| 07:37 | 2 | 15.7 | 72 | 55,656 | 1.02 | 0 | 4.33 | 11.59 | 16.29 | 0 | 0.71 | 2.47 | 5.07 |
| 07:36 | 2 | 15.5 | 73 | 55,254 | 1.03 | 0 | 4.46 | 12.02 | 16.81 | 0 | 1.43 | 2.44 | 4.48 |
| 07:35 | 2 | 15.4 | 73 | 54,784 | 1 | 0 | 3.12 | 15.88 | 15.37 | 0 | 0.71 | 2.9 | 5.1 |
| 07:34 | 2 | 15.2 | 74 | 54,224 | 0.98 | 0 | 3.72 | 19.64 | 17.6 | 0 | 0.71 | 2.4 | 5.71 |
| 07:33 | 2 | 15 | 74 | 53,536 | 0.98 | 0 | 3.95 | 19.62 | 17.11 | 0 | 0.71 | 3.34 | 5.72 |
| 07:32 | 2 | 14.9 | 74 | 52,686 | 1.03 | 0 | 2.98 | 20.07 | 14.76 | 0 | 1.43 | 2.84 | 5.73 |
| 07:30 | 2 | 14.6 | 75 | 50,333 | 0.86 | 0 | 3.46 | 15.46 | 26.03 | 0 | 0.71 | 1.84 | 4.56 |
| 07:29 | 2 | 14.4 | 76 | 48,712 | 0.83 | 0 | 4.03 | 11.6 | 10.4 | 0 | 0.71 | 2.3 | 4.57 |
| 07:27 | 2 | 14.1 | 77 | 44,334 | 0.84 | 0 | 7.82 | 16.04 | 20.78 | 0 | 0 | 1.79 | 4.01 |
| 07:26 | 2 | 13.9 | 77 | 41,664 | 0.85 | 0 | 8.15 | 20.03 | 23.43 | 0 | 0.71 | 1.3 | 4.02 |
| 07:22 | 2 | 13.2 | 78 | 30,695 | 0.88 | 0 | 5.82 | 25.6 | 24.85 | 0 | 0 | 2.19 | 5.22 |
| 07:21 | 2 | 13.1 | 78 | 27,254 | 0.87 | 0 | 4.73 | 22.09 | 30.15 | 0 | 0.71 | 1.71 | 5.23 |
| 07:18 | 2 | 12.6 | 79 | 17,160 | 0.91 | 0 | 5.53 | 35.95 | 10.43 | 0 | 0.71 | 1.67 | 4.1 |
| 07:11 | 2 | 11.5 | 80 | 2,147,483,647 | 0.75 | 0 | 3.08 | 18.61 | 38.15 | 0 | 0.71 | 2.09 | 4.71 |
| 07:06 | 2 | 10.9 | 81 | 2,147,483,647 | 0.72 | 0 | 6.39 | 15.59 | 38.63 | 0 | 0.71 | 1.61 | 4.15 |
| 07:05 | 2 | 10.8 | 81 | 2,147,483,647 | 0.72 | 0 | 6.64 | 18.39 | 37.93 | 0 | 1.43 | 3.02 | 6.97 |